sensor_id;sensor_type;location;lat;lon;timestamp;temperature;humidity
81307;DHT22;70775;50.846;3.224;2023-11-19T00:01:46;14.30;99.90
81307;DHT22;70775;50.846;3.224;2023-11-19T00:04:22;14.30;99.90
81307;DHT22;70775;50.846;3.224;2023-11-19T00:06:48;14.30;99.90
81307;DHT22;70775;50.846;3.224;2023-11-19T00:09:41;14.20;99.90
81307;DHT22;70775;50.846;3.224;2023-11-19T00:12:07;14.30;99.90
81307;DHT22;70775;50.846;3.224;2023-11-19T00:14:38;14.30;99.90
81307;DHT22;70775;50.846;3.224;2023-11-19T00:17:17;14.30;99.90
81307;DHT22;70775;50.846;3.224;2023-11-19T00:19:44;14.30;99.90
81307;DHT22;70775;50.846;3.224;2023-11-19T00:22:19;14.30;99.90
81307;DHT22;70775;50.846;3.224;2023-11-19T00:24:46;14.30;99.90
81307;DHT22;70775;50.846;3.224;2023-11-19T00:27:16;14.30;99.90
81307;DHT22;70775;50.846;3.224;2023-11-19T00:29:42;14.20;99.90
81307;DHT22;70775;50.846;3.224;2023-11-19T00:32:10;14.20;99.90
81307;DHT22;70775;50.846;3.224;2023-11-19T00:34:36;14.10;99.90
81307;DHT22;70775;50.846;3.224;2023-11-19T00:37:10;14.10;99.90
81307;DHT22;70775;50.846;3.224;2023-11-19T00:39:39;14.00;99.90
81307;DHT22;70775;50.846;3.224;2023-11-19T00:42:16;13.90;99.90
81307;DHT22;70775;50.846;3.224;2023-11-19T00:44:48;13.80;99.90
81307;DHT22;70775;50.846;3.224;2023-11-19T00:47:37;13.80;99.90
81307;DHT22;70775;50.846;3.224;2023-11-19T00:50:03;13.80;99.90
81307;DHT22;70775;50.846;3.224;2023-11-19T00:52:31;13.90;99.90
81307;DHT22;70775;50.846;3.224;2023-11-19T00:55:06;13.80;99.90
81307;DHT22;70775;50.846;3.224;2023-11-19T00:57:32;13.80;99.90
81307;DHT22;70775;50.846;3.224;2023-11-19T01:00:22;13.80;99.90
81307;DHT22;70775;50.846;3.224;2023-11-19T01:02:49;13.80;99.90
81307;DHT22;70775;50.846;3.224;2023-11-19T01:05:20;13.80;99.90
81307;DHT22;70775;50.846;3.224;2023-11-19T01:07:49;13.80;99.90
81307;DHT22;70775;50.846;3.224;2023-11-19T01:10:23;13.70;99.90
81307;DHT22;70775;50.846;3.224;2023-11-19T01:12:49;13.80;99.90
81307;DHT22;70775;50.846;3.224;2023-11-19T01:15:15;13.70;99.90
81307;DHT22;70775;50.846;3.224;2023-11-19T01:17:40;13.70;99.90
81307;DHT22;70775;50.846;3.224;2023-11-19T01:20:06;13.70;99.90
81307;DHT22;70775;50.846;3.224;2023-11-19T01:22:34;13.70;99.90
81307;DHT22;70775;50.846;3.224;2023-11-19T01:25:00;13.70;99.90
81307;DHT22;70775;50.846;3.224;2023-11-19T01:27:26;13.70;99.90
81307;DHT22;70775;50.846;3.224;2023-11-19T01:29:56;13.80;99.90
81307;DHT22;70775;50.846;3.224;2023-11-19T01:32:22;13.80;99.90
81307;DHT22;70775;50.846;3.224;2023-11-19T01:34:49;13.80;99.90
81307;DHT22;70775;50.846;3.224;2023-11-19T01:37:30;13.90;99.90
81307;DHT22;70775;50.846;3.224;2023-11-19T01:39:59;13.80;99.90
81307;DHT22;70775;50.846;3.224;2023-11-19T01:42:25;13.90;99.90
81307;DHT22;70775;50.846;3.224;2023-11-19T01:45:00;13.80;99.90
81307;DHT22;70775;50.846;3.224;2023-11-19T01:47:27;13.80;99.90
81307;DHT22;70775;50.846;3.224;2023-11-19T01:49:54;13.70;99.90
81307;DHT22;70775;50.846;3.224;2023-11-19T01:52:21;13.70;99.90
81307;DHT22;70775;50.846;3.224;2023-11-19T01:54:47;13.70;99.90
81307;DHT22;70775;50.846;3.224;2023-11-19T01:57:14;13.70;99.90
81307;DHT22;70775;50.846;3.224;2023-11-19T01:59:58;13.60;99.90
81307;DHT22;70775;50.846;3.224;2023-11-19T02:02:25;13.50;99.90
81307;DHT22;70775;50.846;3.224;2023-11-19T02:04:52;13.50;99.90
81307;DHT22;70775;50.846;3.224;2023-11-19T02:07:32;13.40;99.90
81307;DHT22;70775;50.846;3.224;2023-11-19T02:09:59;13.40;99.90
81307;DHT22;70775;50.846;3.224;2023-11-19T02:12:31;13.50;99.90
81307;DHT22;70775;50.846;3.224;2023-11-19T02:15:03;13.40;99.90
81307;DHT22;70775;50.846;3.224;2023-11-19T02:17:31;13.40;99.90
81307;DHT22;70775;50.846;3.224;2023-11-19T02:19:58;13.40;99.90
81307;DHT22;70775;50.846;3.224;2023-11-19T02:22:24;13.40;99.90
81307;DHT22;70775;50.846;3.224;2023-11-19T02:24:54;13.30;99.90
81307;DHT22;70775;50.846;3.224;2023-11-19T02:30:14;13.30;99.90
81307;DHT22;70775;50.846;3.224;2023-11-19T02:32:43;13.30;99.90
81307;DHT22;70775;50.846;3.224;2023-11-19T02:35:14;13.30;99.90
81307;DHT22;70775;50.846;3.224;2023-11-19T02:37:51;13.20;99.90
81307;DHT22;70775;50.846;3.224;2023-11-19T02:40:20;13.30;99.90
81307;DHT22;70775;50.846;3.224;2023-11-19T02:42:49;13.20;99.90
81307;DHT22;70775;50.846;3.224;2023-11-19T02:45:15;13.30;99.90
81307;DHT22;70775;50.846;3.224;2023-11-19T02:47:41;13.20;99.90
81307;DHT22;70775;50.846;3.224;2023-11-19T02:50:10;13.30;99.90
81307;DHT22;70775;50.846;3.224;2023-11-19T02:52:45;13.20;99.90
81307;DHT22;70775;50.846;3.224;2023-11-19T02:55:12;13.20;99.90
81307;DHT22;70775;50.846;3.224;2023-11-19T02:57:42;13.20;99.90
81307;DHT22;70775;50.846;3.224;2023-11-19T03:00:25;13.20;99.90
81307;DHT22;70775;50.846;3.224;2023-11-19T03:03:06;13.20;99.90
81307;DHT22;70775;50.846;3.224;2023-11-19T03:06:02;13.10;99.90
81307;DHT22;70775;50.846;3.224;2023-11-19T03:08:32;13.20;99.90
81307;DHT22;70775;50.846;3.224;2023-11-19T03:10:58;13.10;99.90
81307;DHT22;70775;50.846;3.224;2023-11-19T03:13:24;13.10;99.90
81307;DHT22;70775;50.846;3.224;2023-11-19T03:15:51;13.10;99.90
81307;DHT22;70775;50.846;3.224;2023-11-19T03:18:16;13.20;99.90
81307;DHT22;70775;50.846;3.224;2023-11-19T03:20:42;13.20;99.90
81307;DHT22;70775;50.846;3.224;2023-11-19T03:23:08;13.20;99.90
81307;DHT22;70775;50.846;3.224;2023-11-19T03:25:33;13.20;99.90
81307;DHT22;70775;50.846;3.224;2023-11-19T03:31:04;13.20;99.90
81307;DHT22;70775;50.846;3.224;2023-11-19T03:33:36;13.10;99.90
81307;DHT22;70775;50.846;3.224;2023-11-19T03:36:02;13.10;99.90
81307;DHT22;70775;50.846;3.224;2023-11-19T03:38:28;13.10;99.90
81307;DHT22;70775;50.846;3.224;2023-11-19T03:40:54;13.10;99.90
81307;DHT22;70775;50.846;3.224;2023-11-19T03:43:19;13.10;99.90
81307;DHT22;70775;50.846;3.224;2023-11-19T03:45:45;13.00;99.90
81307;DHT22;70775;50.846;3.224;2023-11-19T03:48:11;13.00;99.90
81307;DHT22;70775;50.846;3.224;2023-11-19T03:50:44;13.00;99.90
81307;DHT22;70775;50.846;3.224;2023-11-19T03:53:12;12.90;99.90
81307;DHT22;70775;50.846;3.224;2023-11-19T03:55:37;13.00;99.90
81307;DHT22;70775;50.846;3.224;2023-11-19T03:58:03;13.00;99.90
81307;DHT22;70775;50.846;3.224;2023-11-19T04:00:29;12.90;99.90
81307;DHT22;70775;50.846;3.224;2023-11-19T04:02:54;12.90;99.90
81307;DHT22;70775;50.846;3.224;2023-11-19T04:05:20;12.90;99.90
81307;DHT22;70775;50.846;3.224;2023-11-19T04:07:46;12.90;99.90
81307;DHT22;70775;50.846;3.224;2023-11-19T04:10:11;12.90;99.90
81307;DHT22;70775;50.846;3.224;2023-11-19T04:12:44;12.90;99.90
81307;DHT22;70775;50.846;3.224;2023-11-19T04:15:11;12.80;99.90
81307;DHT22;70775;50.846;3.224;2023-11-19T04:17:37;12.80;99.90
81307;DHT22;70775;50.846;3.224;2023-11-19T04:20:05;12.80;99.90
81307;DHT22;70775;50.846;3.224;2023-11-19T04:22:31;12.70;99.90
81307;DHT22;70775;50.846;3.224;2023-11-19T04:25:05;12.70;99.90
81307;DHT22;70775;50.846;3.224;2023-11-19T04:27:56;12.60;99.90
81307;DHT22;70775;50.846;3.224;2023-11-19T04:30:32;12.70;99.90
81307;DHT22;70775;50.846;3.224;2023-11-19T04:32:58;12.60;99.90
81307;DHT22;70775;50.846;3.224;2023-11-19T04:35:23;12.60;99.90
81307;DHT22;70775;50.846;3.224;2023-11-19T04:37:51;12.60;99.90
81307;DHT22;70775;50.846;3.224;2023-11-19T04:40:16;12.60;99.90
81307;DHT22;70775;50.846;3.224;2023-11-19T04:42:46;12.60;99.90
81307;DHT22;70775;50.846;3.224;2023-11-19T04:45:21;12.60;99.90
81307;DHT22;70775;50.846;3.224;2023-11-19T04:47:47;12.60;99.90
81307;DHT22;70775;50.846;3.224;2023-11-19T04:50:12;12.60;99.90
81307;DHT22;70775;50.846;3.224;2023-11-19T04:52:38;12.50;99.90
81307;DHT22;70775;50.846;3.224;2023-11-19T04:55:10;12.40;99.90
81307;DHT22;70775;50.846;3.224;2023-11-19T04:57:37;12.50;99.90
81307;DHT22;70775;50.846;3.224;2023-11-19T05:00:04;12.40;99.90
81307;DHT22;70775;50.846;3.224;2023-11-19T05:02:32;12.40;99.90
81307;DHT22;70775;50.846;3.224;2023-11-19T05:05:00;12.30;99.90
81307;DHT22;70775;50.846;3.224;2023-11-19T05:07:30;12.30;99.90
81307;DHT22;70775;50.846;3.224;2023-11-19T05:09:56;12.30;99.90
81307;DHT22;70775;50.846;3.224;2023-11-19T05:12:22;12.30;99.90
81307;DHT22;70775;50.846;3.224;2023-11-19T05:14:48;12.30;99.90
81307;DHT22;70775;50.846;3.224;2023-11-19T05:17:17;12.30;99.90
81307;DHT22;70775;50.846;3.224;2023-11-19T05:19:43;12.30;99.90
81307;DHT22;70775;50.846;3.224;2023-11-19T05:22:09;12.30;99.90
81307;DHT22;70775;50.846;3.224;2023-11-19T05:24:34;12.30;99.90
81307;DHT22;70775;50.846;3.224;2023-11-19T05:27:21;12.20;99.90
81307;DHT22;70775;50.846;3.224;2023-11-19T05:29:47;12.30;99.90
81307;DHT22;70775;50.846;3.224;2023-11-19T05:32:27;12.30;99.90
81307;DHT22;70775;50.846;3.224;2023-11-19T05:34:52;12.30;99.90
81307;DHT22;70775;50.846;3.224;2023-11-19T05:37:18;12.20;99.90
81307;DHT22;70775;50.846;3.224;2023-11-19T05:39:45;12.20;99.90
81307;DHT22;70775;50.846;3.224;2023-11-19T05:42:10;12.20;99.90
81307;DHT22;70775;50.846;3.224;2023-11-19T05:44:53;12.20;99.90
81307;DHT22;70775;50.846;3.224;2023-11-19T05:47:21;12.20;99.90
81307;DHT22;70775;50.846;3.224;2023-11-19T05:49:48;12.20;99.90
81307;DHT22;70775;50.846;3.224;2023-11-19T05:52:34;12.20;99.90
81307;DHT22;70775;50.846;3.224;2023-11-19T05:55:07;12.20;99.90
81307;DHT22;70775;50.846;3.224;2023-11-19T05:57:41;12.10;99.90
81307;DHT22;70775;50.846;3.224;2023-11-19T06:00:07;12.10;99.90
81307;DHT22;70775;50.846;3.224;2023-11-19T06:02:34;12.10;99.90
81307;DHT22;70775;50.846;3.224;2023-11-19T06:05:00;12.10;99.90
81307;DHT22;70775;50.846;3.224;2023-11-19T06:07:26;12.00;99.90
81307;DHT22;70775;50.846;3.224;2023-11-19T06:09:56;12.10;99.90
81307;DHT22;70775;50.846;3.224;2023-11-19T06:12:22;12.20;99.90
81307;DHT22;70775;50.846;3.224;2023-11-19T06:14:49;12.20;99.90
81307;DHT22;70775;50.846;3.224;2023-11-19T06:17:22;12.20;99.90
81307;DHT22;70775;50.846;3.224;2023-11-19T06:19:48;12.20;99.90
81307;DHT22;70775;50.846;3.224;2023-11-19T06:22:16;12.20;99.90
81307;DHT22;70775;50.846;3.224;2023-11-19T06:24:42;12.30;99.90
81307;DHT22;70775;50.846;3.224;2023-11-19T06:27:08;12.20;99.90
81307;DHT22;70775;50.846;3.224;2023-11-19T06:29:33;12.20;99.90
81307;DHT22;70775;50.846;3.224;2023-11-19T06:31:59;12.10;99.90
81307;DHT22;70775;50.846;3.224;2023-11-19T06:34:24;12.10;99.90
81307;DHT22;70775;50.846;3.224;2023-11-19T06:36:50;12.10;99.90
81307;DHT22;70775;50.846;3.224;2023-11-19T06:39:15;12.00;99.90
81307;DHT22;70775;50.846;3.224;2023-11-19T06:41:46;12.00;99.90
81307;DHT22;70775;50.846;3.224;2023-11-19T06:44:15;12.00;99.90
81307;DHT22;70775;50.846;3.224;2023-11-19T06:46:58;12.10;99.90
81307;DHT22;70775;50.846;3.224;2023-11-19T06:49:24;12.20;99.90
81307;DHT22;70775;50.846;3.224;2023-11-19T06:51:50;12.10;99.90
81307;DHT22;70775;50.846;3.224;2023-11-19T06:54:15;12.10;99.90
81307;DHT22;70775;50.846;3.224;2023-11-19T06:56:41;12.10;99.90
81307;DHT22;70775;50.846;3.224;2023-11-19T06:59:09;12.10;99.90
81307;DHT22;70775;50.846;3.224;2023-11-19T07:01:36;12.10;99.90
81307;DHT22;70775;50.846;3.224;2023-11-19T07:04:02;12.00;99.90
81307;DHT22;70775;50.846;3.224;2023-11-19T07:06:33;12.00;99.90
81307;DHT22;70775;50.846;3.224;2023-11-19T07:09:00;12.00;99.90
81307;DHT22;70775;50.846;3.224;2023-11-19T07:11:37;12.00;99.90
81307;DHT22;70775;50.846;3.224;2023-11-19T07:14:04;12.10;99.90
81307;DHT22;70775;50.846;3.224;2023-11-19T07:16:35;12.10;99.90
81307;DHT22;70775;50.846;3.224;2023-11-19T07:19:21;12.10;99.90
81307;DHT22;70775;50.846;3.224;2023-11-19T07:21:46;12.10;99.90
81307;DHT22;70775;50.846;3.224;2023-11-19T07:24:12;12.10;99.90
81307;DHT22;70775;50.846;3.224;2023-11-19T07:26:51;12.10;99.90
81307;DHT22;70775;50.846;3.224;2023-11-19T07:29:18;12.10;99.90
81307;DHT22;70775;50.846;3.224;2023-11-19T07:31:44;12.10;99.90
81307;DHT22;70775;50.846;3.224;2023-11-19T07:34:11;12.10;99.90
81307;DHT22;70775;50.846;3.224;2023-11-19T07:36:37;12.10;99.90
81307;DHT22;70775;50.846;3.224;2023-11-19T07:39:04;12.20;99.90
81307;DHT22;70775;50.846;3.224;2023-11-19T07:41:30;12.20;99.90
81307;DHT22;70775;50.846;3.224;2023-11-19T07:43:56;12.20;99.90
81307;DHT22;70775;50.846;3.224;2023-11-19T07:46:22;12.20;99.90
81307;DHT22;70775;50.846;3.224;2023-11-19T07:48:48;12.20;99.90
81307;DHT22;70775;50.846;3.224;2023-11-19T07:51:14;12.20;99.90
81307;DHT22;70775;50.846;3.224;2023-11-19T07:53:42;12.20;99.90
81307;DHT22;70775;50.846;3.224;2023-11-19T07:56:08;12.20;99.90
81307;DHT22;70775;50.846;3.224;2023-11-19T07:58:34;12.10;99.90
81307;DHT22;70775;50.846;3.224;2023-11-19T08:01:02;12.10;99.90
81307;DHT22;70775;50.846;3.224;2023-11-19T08:03:27;12.10;99.90
81307;DHT22;70775;50.846;3.224;2023-11-19T08:05:55;12.10;99.90
81307;DHT22;70775;50.846;3.224;2023-11-19T08:08:22;12.20;99.90
81307;DHT22;70775;50.846;3.224;2023-11-19T08:10:48;12.20;99.90
81307;DHT22;70775;50.846;3.224;2023-11-19T08:13:14;12.20;99.90
81307;DHT22;70775;50.846;3.224;2023-11-19T08:15:40;12.30;99.90
81307;DHT22;70775;50.846;3.224;2023-11-19T08:18:06;12.40;99.90
81307;DHT22;70775;50.846;3.224;2023-11-19T08:20:32;12.40;99.90
81307;DHT22;70775;50.846;3.224;2023-11-19T08:22:58;12.50;99.90
81307;DHT22;70775;50.846;3.224;2023-11-19T08:25:24;12.50;99.90
81307;DHT22;70775;50.846;3.224;2023-11-19T08:27:49;12.50;99.90
81307;DHT22;70775;50.846;3.224;2023-11-19T08:30:15;12.50;99.90
81307;DHT22;70775;50.846;3.224;2023-11-19T08:32:40;12.40;99.90
81307;DHT22;70775;50.846;3.224;2023-11-19T08:35:07;12.50;99.90
81307;DHT22;70775;50.846;3.224;2023-11-19T08:37:32;12.40;99.90
81307;DHT22;70775;50.846;3.224;2023-11-19T08:39:58;12.40;99.90
81307;DHT22;70775;50.846;3.224;2023-11-19T08:42:24;12.50;99.90
81307;DHT22;70775;50.846;3.224;2023-11-19T08:44:50;12.60;99.90
81307;DHT22;70775;50.846;3.224;2023-11-19T08:47:16;12.70;99.90
81307;DHT22;70775;50.846;3.224;2023-11-19T08:49:44;12.80;99.90
81307;DHT22;70775;50.846;3.224;2023-11-19T08:52:09;12.80;99.90
81307;DHT22;70775;50.846;3.224;2023-11-19T08:54:36;12.80;99.90
81307;DHT22;70775;50.846;3.224;2023-11-19T08:57:02;12.80;99.90
81307;DHT22;70775;50.846;3.224;2023-11-19T08:59:31;12.90;99.90
81307;DHT22;70775;50.846;3.224;2023-11-19T09:01:56;12.90;99.90
81307;DHT22;70775;50.846;3.224;2023-11-19T09:04:22;13.00;99.90
81307;DHT22;70775;50.846;3.224;2023-11-19T09:06:48;13.00;99.90
81307;DHT22;70775;50.846;3.224;2023-11-19T09:09:14;13.00;99.90
81307;DHT22;70775;50.846;3.224;2023-11-19T09:11:40;13.00;99.90
81307;DHT22;70775;50.846;3.224;2023-11-19T09:14:06;13.00;99.90
81307;DHT22;70775;50.846;3.224;2023-11-19T09:16:32;13.00;99.90
81307;DHT22;70775;50.846;3.224;2023-11-19T09:18:58;13.10;99.90
81307;DHT22;70775;50.846;3.224;2023-11-19T09:21:25;13.20;99.90
81307;DHT22;70775;50.846;3.224;2023-11-19T09:23:51;13.30;99.90
81307;DHT22;70775;50.846;3.224;2023-11-19T09:26:18;13.30;99.90
81307;DHT22;70775;50.846;3.224;2023-11-19T09:28:44;13.20;99.90
81307;DHT22;70775;50.846;3.224;2023-11-19T09:31:16;13.30;99.90
81307;DHT22;70775;50.846;3.224;2023-11-19T09:33:42;13.30;99.90
81307;DHT22;70775;50.846;3.224;2023-11-19T09:36:08;13.30;99.90
81307;DHT22;70775;50.846;3.224;2023-11-19T09:38:34;13.20;99.90
81307;DHT22;70775;50.846;3.224;2023-11-19T09:41:05;13.20;99.90
81307;DHT22;70775;50.846;3.224;2023-11-19T09:43:34;13.10;99.90
81307;DHT22;70775;50.846;3.224;2023-11-19T09:46:05;13.10;99.90
81307;DHT22;70775;50.846;3.224;2023-11-19T09:48:36;13.00;99.90
81307;DHT22;70775;50.846;3.224;2023-11-19T09:51:10;13.00;99.90
81307;DHT22;70775;50.846;3.224;2023-11-19T09:53:37;13.10;99.90
81307;DHT22;70775;50.846;3.224;2023-11-19T09:56:04;13.20;99.90
81307;DHT22;70775;50.846;3.224;2023-11-19T09:58:30;13.20;99.90
81307;DHT22;70775;50.846;3.224;2023-11-19T10:00:57;13.40;99.90
81307;DHT22;70775;50.846;3.224;2023-11-19T10:03:33;13.50;99.90
81307;DHT22;70775;50.846;3.224;2023-11-19T10:06:01;13.50;99.90
81307;DHT22;70775;50.846;3.224;2023-11-19T10:08:27;13.50;99.90
81307;DHT22;70775;50.846;3.224;2023-11-19T10:10:53;13.40;99.90
81307;DHT22;70775;50.846;3.224;2023-11-19T10:13:19;13.40;99.90
81307;DHT22;70775;50.846;3.224;2023-11-19T10:15:49;13.50;99.90
81307;DHT22;70775;50.846;3.224;2023-11-19T10:18:15;13.50;99.90
81307;DHT22;70775;50.846;3.224;2023-11-19T10:20:41;13.60;99.90
81307;DHT22;70775;50.846;3.224;2023-11-19T10:23:07;13.60;99.90
81307;DHT22;70775;50.846;3.224;2023-11-19T10:25:33;13.70;99.90
81307;DHT22;70775;50.846;3.224;2023-11-19T10:27:59;13.80;99.90
81307;DHT22;70775;50.846;3.224;2023-11-19T10:30:30;13.90;99.90
81307;DHT22;70775;50.846;3.224;2023-11-19T10:33:07;14.00;99.90
81307;DHT22;70775;50.846;3.224;2023-11-19T10:35:34;14.00;99.90
81307;DHT22;70775;50.846;3.224;2023-11-19T10:38:01;13.90;99.90
81307;DHT22;70775;50.846;3.224;2023-11-19T10:40:39;14.00;99.90
81307;DHT22;70775;50.846;3.224;2023-11-19T10:43:09;14.00;99.90
81307;DHT22;70775;50.846;3.224;2023-11-19T10:45:38;14.00;99.90
81307;DHT22;70775;50.846;3.224;2023-11-19T10:48:27;14.00;99.90
81307;DHT22;70775;50.846;3.224;2023-11-19T10:50:54;14.20;99.90
81307;DHT22;70775;50.846;3.224;2023-11-19T10:53:21;14.40;99.90
81307;DHT22;70775;50.846;3.224;2023-11-19T10:55:48;14.50;99.90
81307;DHT22;70775;50.846;3.224;2023-11-19T10:58:16;14.40;99.90
81307;DHT22;70775;50.846;3.224;2023-11-19T11:00:45;14.30;99.90
81307;DHT22;70775;50.846;3.224;2023-11-19T11:03:19;14.50;99.90
81307;DHT22;70775;50.846;3.224;2023-11-19T11:05:51;14.50;99.90
81307;DHT22;70775;50.846;3.224;2023-11-19T11:08:18;14.60;99.90
81307;DHT22;70775;50.846;3.224;2023-11-19T11:10:56;14.70;98.80
81307;DHT22;70775;50.846;3.224;2023-11-19T11:13:26;14.60;99.00
81307;DHT22;70775;50.846;3.224;2023-11-19T11:15:55;14.50;98.70
81307;DHT22;70775;50.846;3.224;2023-11-19T11:18:24;14.60;98.10
81307;DHT22;70775;50.846;3.224;2023-11-19T11:21:12;14.50;98.20
81307;DHT22;70775;50.846;3.224;2023-11-19T11:26:35;14.30;99.20
81307;DHT22;70775;50.846;3.224;2023-11-19T11:32:21;13.90;99.90
81307;DHT22;70775;50.846;3.224;2023-11-19T11:37:50;13.30;99.90
81307;DHT22;70775;50.846;3.224;2023-11-19T11:40:19;13.10;99.90
81307;DHT22;70775;50.846;3.224;2023-11-19T11:42:45;13.00;99.90
81307;DHT22;70775;50.846;3.224;2023-11-19T11:45:17;12.90;99.90
81307;DHT22;70775;50.846;3.224;2023-11-19T11:50:23;13.30;99.90
81307;DHT22;70775;50.846;3.224;2023-11-19T11:55:52;13.60;99.90
81307;DHT22;70775;50.846;3.224;2023-11-19T11:58:30;13.70;99.90
81307;DHT22;70775;50.846;3.224;2023-11-19T12:00:58;13.70;99.90
81307;DHT22;70775;50.846;3.224;2023-11-19T12:03:27;13.60;99.90
81307;DHT22;70775;50.846;3.224;2023-11-19T12:06:14;13.50;99.90
81307;DHT22;70775;50.846;3.224;2023-11-19T12:08:40;13.40;99.90
81307;DHT22;70775;50.846;3.224;2023-11-19T12:11:06;13.30;99.90
81307;DHT22;70775;50.846;3.224;2023-11-19T12:13:56;13.30;99.90
81307;DHT22;70775;50.846;3.224;2023-11-19T12:16:24;13.20;99.90
81307;DHT22;70775;50.846;3.224;2023-11-19T12:18:50;13.00;99.90
81307;DHT22;70775;50.846;3.224;2023-11-19T12:21:29;13.10;99.90
81307;DHT22;70775;50.846;3.224;2023-11-19T12:23:59;13.00;99.90
81307;DHT22;70775;50.846;3.224;2023-11-19T12:26:34;12.90;99.90
81307;DHT22;70775;50.846;3.224;2023-11-19T12:29:00;13.00;99.90
81307;DHT22;70775;50.846;3.224;2023-11-19T12:31:26;13.00;99.90
81307;DHT22;70775;50.846;3.224;2023-11-19T12:33:52;12.90;99.90
81307;DHT22;70775;50.846;3.224;2023-11-19T12:36:19;12.90;99.90
81307;DHT22;70775;50.846;3.224;2023-11-19T12:38:46;12.90;99.90
81307;DHT22;70775;50.846;3.224;2023-11-19T12:41:11;12.90;99.90
81307;DHT22;70775;50.846;3.224;2023-11-19T12:43:53;13.00;99.90
81307;DHT22;70775;50.846;3.224;2023-11-19T12:46:24;13.10;99.90
81307;DHT22;70775;50.846;3.224;2023-11-19T12:48:52;13.10;99.90
81307;DHT22;70775;50.846;3.224;2023-11-19T12:51:18;13.20;99.90
81307;DHT22;70775;50.846;3.224;2023-11-19T12:53:55;13.20;99.90
81307;DHT22;70775;50.846;3.224;2023-11-19T12:56:23;13.30;99.90
81307;DHT22;70775;50.846;3.224;2023-11-19T12:58:49;13.40;99.90
81307;DHT22;70775;50.846;3.224;2023-11-19T13:01:20;13.50;99.90
81307;DHT22;70775;50.846;3.224;2023-11-19T13:03:46;13.50;99.90
81307;DHT22;70775;50.846;3.224;2023-11-19T13:06:13;13.50;99.90
81307;DHT22;70775;50.846;3.224;2023-11-19T13:08:44;13.50;99.90
81307;DHT22;70775;50.846;3.224;2023-11-19T13:11:11;13.50;99.90
81307;DHT22;70775;50.846;3.224;2023-11-19T13:13:59;13.50;99.90
81307;DHT22;70775;50.846;3.224;2023-11-19T13:16:26;13.50;99.90
81307;DHT22;70775;50.846;3.224;2023-11-19T13:18:51;13.60;99.90
81307;DHT22;70775;50.846;3.224;2023-11-19T13:21:17;13.60;99.90
81307;DHT22;70775;50.846;3.224;2023-11-19T13:23:43;13.50;99.90
81307;DHT22;70775;50.846;3.224;2023-11-19T13:26:10;13.20;99.90
81307;DHT22;70775;50.846;3.224;2023-11-19T13:28:42;13.00;99.90
81307;DHT22;70775;50.846;3.224;2023-11-19T13:34:45;12.70;99.90
81307;DHT22;70775;50.846;3.224;2023-11-19T13:37:11;12.60;99.90
81307;DHT22;70775;50.846;3.224;2023-11-19T13:39:42;12.60;99.90
81307;DHT22;70775;50.846;3.224;2023-11-19T13:42:07;12.70;99.90
81307;DHT22;70775;50.846;3.224;2023-11-19T13:44:33;12.70;99.90
81307;DHT22;70775;50.846;3.224;2023-11-19T13:47:16;12.80;99.90
81307;DHT22;70775;50.846;3.224;2023-11-19T13:49:44;13.00;99.90
81307;DHT22;70775;50.846;3.224;2023-11-19T13:52:09;13.00;99.90
81307;DHT22;70775;50.846;3.224;2023-11-19T13:54:36;13.10;99.90
81307;DHT22;70775;50.846;3.224;2023-11-19T13:57:03;13.20;99.90
81307;DHT22;70775;50.846;3.224;2023-11-19T13:59:31;13.40;99.90
81307;DHT22;70775;50.846;3.224;2023-11-19T14:02:02;13.40;99.90
81307;DHT22;70775;50.846;3.224;2023-11-19T14:04:28;13.40;99.90
81307;DHT22;70775;50.846;3.224;2023-11-19T14:07:13;13.40;99.90
81307;DHT22;70775;50.846;3.224;2023-11-19T14:09:42;13.30;99.90
81307;DHT22;70775;50.846;3.224;2023-11-19T14:12:21;13.30;99.90
81307;DHT22;70775;50.846;3.224;2023-11-19T14:14:49;13.30;99.90
81307;DHT22;70775;50.846;3.224;2023-11-19T14:17:14;13.20;99.90
81307;DHT22;70775;50.846;3.224;2023-11-19T14:19:42;13.30;99.90
81307;DHT22;70775;50.846;3.224;2023-11-19T14:22:07;13.30;99.90
81307;DHT22;70775;50.846;3.224;2023-11-19T14:24:34;13.20;99.90
81307;DHT22;70775;50.846;3.224;2023-11-19T14:27:33;13.20;99.90
81307;DHT22;70775;50.846;3.224;2023-11-19T14:30:26;13.10;99.90
81307;DHT22;70775;50.846;3.224;2023-11-19T14:32:52;13.10;99.90
81307;DHT22;70775;50.846;3.224;2023-11-19T14:35:19;13.00;99.90
81307;DHT22;70775;50.846;3.224;2023-11-19T14:37:45;13.00;99.90
81307;DHT22;70775;50.846;3.224;2023-11-19T14:40:12;13.10;99.90
81307;DHT22;70775;50.846;3.224;2023-11-19T14:42:51;13.10;99.90
81307;DHT22;70775;50.846;3.224;2023-11-19T14:45:16;13.10;99.90
81307;DHT22;70775;50.846;3.224;2023-11-19T14:47:43;13.10;99.90
81307;DHT22;70775;50.846;3.224;2023-11-19T14:50:24;13.00;99.90
81307;DHT22;70775;50.846;3.224;2023-11-19T14:52:50;13.10;99.90
81307;DHT22;70775;50.846;3.224;2023-11-19T14:55:33;13.20;99.90
81307;DHT22;70775;50.846;3.224;2023-11-19T14:58:00;13.20;99.90
81307;DHT22;70775;50.846;3.224;2023-11-19T15:00:25;13.20;99.90
81307;DHT22;70775;50.846;3.224;2023-11-19T15:03:15;13.10;99.90
81307;DHT22;70775;50.846;3.224;2023-11-19T15:05:41;13.10;99.90
81307;DHT22;70775;50.846;3.224;2023-11-19T15:08:07;13.00;99.90
81307;DHT22;70775;50.846;3.224;2023-11-19T15:10:33;13.00;99.90
81307;DHT22;70775;50.846;3.224;2023-11-19T15:13:00;12.90;99.90
81307;DHT22;70775;50.846;3.224;2023-11-19T15:15:26;12.90;99.90
81307;DHT22;70775;50.846;3.224;2023-11-19T15:17:52;12.80;99.90
81307;DHT22;70775;50.846;3.224;2023-11-19T15:20:17;12.90;99.90
81307;DHT22;70775;50.846;3.224;2023-11-19T15:22:43;12.80;99.90
81307;DHT22;70775;50.846;3.224;2023-11-19T15:25:09;12.80;99.90
81307;DHT22;70775;50.846;3.224;2023-11-19T15:27:36;12.80;99.90
81307;DHT22;70775;50.846;3.224;2023-11-19T15:30:03;12.70;99.90
81307;DHT22;70775;50.846;3.224;2023-11-19T15:32:30;12.70;99.90
81307;DHT22;70775;50.846;3.224;2023-11-19T15:34:57;12.60;99.90
81307;DHT22;70775;50.846;3.224;2023-11-19T15:37:24;12.60;99.90
81307;DHT22;70775;50.846;3.224;2023-11-19T15:39:49;12.60;99.90
81307;DHT22;70775;50.846;3.224;2023-11-19T15:42:17;12.50;99.90
81307;DHT22;70775;50.846;3.224;2023-11-19T15:44:43;12.50;99.90
81307;DHT22;70775;50.846;3.224;2023-11-19T15:47:16;12.50;99.90
81307;DHT22;70775;50.846;3.224;2023-11-19T15:49:41;12.50;99.90
81307;DHT22;70775;50.846;3.224;2023-11-19T15:52:07;12.50;99.90
81307;DHT22;70775;50.846;3.224;2023-11-19T15:54:33;12.40;99.90
81307;DHT22;70775;50.846;3.224;2023-11-19T15:56:59;12.50;99.90
81307;DHT22;70775;50.846;3.224;2023-11-19T15:59:26;12.50;99.90
81307;DHT22;70775;50.846;3.224;2023-11-19T16:01:52;12.50;99.90
81307;DHT22;70775;50.846;3.224;2023-11-19T16:04:17;12.50;99.90
81307;DHT22;70775;50.846;3.224;2023-11-19T16:06:43;12.50;99.90